createdAt,value
2022-08-26T00:01:53.816Z,99.83
2022-08-26T00:04:21.660Z,99.04
2022-08-26T00:06:49.107Z,99.75
2022-08-26T00:09:16.815Z,99.65
2022-08-26T00:11:44.387Z,100.00
2022-08-26T00:14:12.205Z,99.65
2022-08-26T00:16:48.214Z,99.68
2022-08-26T00:19:16.475Z,99.58
2022-08-26T00:21:44.281Z,99.89
2022-08-26T00:24:11.925Z,99.84
2022-08-26T00:26:41.341Z,98.62
2022-08-26T00:29:09.435Z,98.66
2022-08-26T00:31:37.041Z,97.98
2022-08-26T00:34:05.974Z,97.55
2022-08-26T00:36:33.390Z,97.65
2022-08-26T00:39:00.953Z,97.43
2022-08-26T00:41:29.372Z,98.29
2022-08-26T00:43:57.422Z,97.99
2022-08-26T00:46:28.755Z,99.14
2022-08-26T00:49:00.721Z,98.41
2022-08-26T00:51:30.124Z,98.88
2022-08-26T00:54:05.345Z,99.63
2022-08-26T00:56:35.469Z,98.96
2022-08-26T00:59:04.279Z,98.88
2022-08-26T01:01:32.187Z,99.62
2022-08-26T01:04:01.085Z,99.16
2022-08-26T01:06:31.239Z,98.43
2022-08-26T01:08:58.782Z,98.42
2022-08-26T01:11:26.450Z,98.83
2022-08-26T01:13:55.666Z,99.35
2022-08-26T01:16:24.868Z,98.81
2022-08-26T01:18:53.657Z,98.67
2022-08-26T01:21:27.605Z,99.26
2022-08-26T01:23:58.881Z,99.32
2022-08-26T01:26:29.651Z,98.74
2022-08-26T01:28:58.498Z,99.38
2022-08-26T01:31:26.863Z,99.35
2022-08-26T01:34:00.318Z,99.42
2022-08-26T01:36:27.781Z,99.40
2022-08-26T01:38:55.441Z,99.92
2022-08-26T01:41:27.326Z,99.06
2022-08-26T01:43:57.257Z,99.28
2022-08-26T01:46:26.963Z,99.40
2022-08-26T01:48:56.042Z,98.75
2022-08-26T01:51:24.663Z,99.20
2022-08-26T01:53:52.054Z,99.36
2022-08-26T01:56:22.422Z,99.74
2022-08-26T01:58:53.679Z,100.00
2022-08-26T02:01:22.300Z,100.00
2022-08-26T02:03:52.214Z,100.00
2022-08-26T02:06:20.628Z,100.00
2022-08-26T02:08:49.485Z,99.98
2022-08-26T02:11:18.419Z,99.96
2022-08-26T02:13:47.146Z,99.97
2022-08-26T02:16:18.829Z,100.00
2022-08-26T02:18:48.872Z,100.00
2022-08-26T02:21:17.512Z,100.00
2022-08-26T02:23:45.591Z,99.74
2022-08-26T02:26:18.000Z,99.83
2022-08-26T02:28:51.254Z,100.00
2022-08-26T02:31:20.093Z,100.00
2022-08-26T02:33:48.503Z,100.00
2022-08-26T02:36:19.439Z,100.00
2022-08-26T02:38:46.832Z,100.00
2022-08-26T02:41:15.248Z,100.00
2022-08-26T02:43:45.509Z,100.00
2022-08-26T02:46:13.022Z,100.00
2022-08-26T02:48:50.325Z,100.00
2022-08-26T02:51:17.784Z,100.00
2022-08-26T02:53:45.183Z,100.00
2022-08-26T02:56:12.569Z,100.00
2022-08-26T02:58:39.972Z,100.00
2022-08-26T03:01:08.804Z,100.00
2022-08-26T03:03:36.261Z,100.00
2022-08-26T03:06:05.163Z,100.00
2022-08-26T03:08:32.605Z,99.80
2022-08-26T03:11:01.672Z,100.00
2022-08-26T03:13:29.542Z,100.00
2022-08-26T03:15:57.535Z,100.00
2022-08-26T03:18:24.979Z,100.00
2022-08-26T03:20:52.379Z,100.00
2022-08-26T03:23:21.218Z,100.00
2022-08-26T03:25:49.763Z,100.00
2022-08-26T03:28:18.170Z,100.00
2022-08-26T03:30:45.934Z,100.00
2022-08-26T03:33:14.324Z,100.00
2022-08-26T03:35:43.419Z,100.00
2022-08-26T03:38:11.153Z,100.00
2022-08-26T03:40:40.161Z,100.00
2022-08-26T03:43:09.873Z,100.00
2022-08-26T03:45:37.839Z,100.00
2022-08-26T03:48:05.353Z,100.00
2022-08-26T03:50:34.085Z,100.00
2022-08-26T03:53:01.899Z,100.00
2022-08-26T03:55:31.930Z,100.00
2022-08-26T03:58:02.017Z,100.00
2022-08-26T04:00:30.135Z,100.00
2022-08-26T04:02:57.693Z,100.00
2022-08-26T04:05:25.546Z,100.00
2022-08-26T04:07:53.160Z,100.00
2022-08-26T04:10:29.253Z,100.00
2022-08-26T04:12:59.019Z,100.00
2022-08-26T04:15:34.720Z,100.00
2022-08-26T04:18:02.195Z,100.00
2022-08-26T04:20:30.289Z,100.00
2022-08-26T04:22:57.675Z,100.00
2022-08-26T04:25:25.058Z,100.00
2022-08-26T04:27:52.978Z,100.00
2022-08-26T04:30:21.124Z,100.00
2022-08-26T04:32:49.958Z,100.00
2022-08-26T04:35:17.384Z,100.00
2022-08-26T04:37:44.874Z,100.00
2022-08-26T04:40:12.547Z,100.00
2022-08-26T04:42:39.985Z,100.00
2022-08-26T04:45:10.026Z,100.00
2022-08-26T04:47:37.486Z,100.00
2022-08-26T04:50:07.666Z,100.00
2022-08-26T04:52:35.512Z,100.00
2022-08-26T04:55:02.975Z,100.00
2022-08-26T04:57:33.625Z,100.00
2022-08-26T05:00:00.999Z,100.00
2022-08-26T05:02:28.974Z,100.00
2022-08-26T05:04:56.389Z,100.00
2022-08-26T05:07:25.187Z,100.00
2022-08-26T05:09:52.790Z,100.00
2022-08-26T05:12:20.188Z,100.00
2022-08-26T05:14:48.213Z,100.00
2022-08-26T05:17:15.770Z,100.00
2022-08-26T05:19:43.810Z,100.00
2022-08-26T05:22:13.082Z,100.00
2022-08-26T05:24:43.173Z,100.00
2022-08-26T05:27:11.705Z,100.00
2022-08-26T05:29:40.022Z,100.00
2022-08-26T05:32:07.721Z,100.00
2022-08-26T05:34:35.230Z,100.00
2022-08-26T05:37:06.499Z,100.00
2022-08-26T05:39:34.041Z,100.00
2022-08-26T05:42:04.001Z,100.00
2022-08-26T05:44:53.623Z,100.00
2022-08-26T05:47:18.882Z,100.00
2022-08-26T05:49:51.684Z,100.00
2022-08-26T05:52:19.395Z,100.00
2022-08-26T05:54:47.728Z,100.00
2022-08-26T05:57:16.853Z,100.00
2022-08-26T05:59:46.046Z,100.00
2022-08-26T06:02:13.443Z,100.00
2022-08-26T06:04:41.191Z,100.00
2022-08-26T06:07:11.635Z,100.00
2022-08-26T06:09:40.620Z,100.00
2022-08-26T06:12:08.280Z,100.00
2022-08-26T06:14:36.998Z,100.00
2022-08-26T06:17:04.557Z,99.65
2022-08-26T06:19:33.053Z,99.67
2022-08-26T06:22:23.264Z,99.96
2022-08-26T06:25:08.886Z,99.00
2022-08-26T06:27:37.327Z,99.58
2022-08-26T06:30:06.609Z,98.77
2022-08-26T06:32:34.532Z,97.67
2022-08-26T06:35:02.062Z,97.42
2022-08-26T06:37:29.584Z,97.05
2022-08-26T06:39:57.136Z,96.29
2022-08-26T06:42:25.117Z,96.05
2022-08-26T06:44:52.537Z,95.18
2022-08-26T06:47:21.247Z,94.61
2022-08-26T06:49:48.693Z,94.32
2022-08-26T06:52:23.097Z,94.05
2022-08-26T06:54:52.044Z,93.71
2022-08-26T06:57:20.478Z,93.67
2022-08-26T06:59:51.227Z,94.13
2022-08-26T07:02:19.437Z,94.76
2022-08-26T07:04:51.068Z,94.68
2022-08-26T07:07:18.761Z,94.97
2022-08-26T07:09:49.284Z,95.33
2022-08-26T07:12:20.393Z,94.46
2022-08-26T07:14:48.227Z,94.90
2022-08-26T07:17:15.790Z,95.20
2022-08-26T07:19:44.052Z,94.81
2022-08-26T07:22:12.784Z,95.57
2022-08-26T07:24:42.489Z,95.01
2022-08-26T07:27:11.226Z,94.57
2022-08-26T07:29:39.365Z,94.45
2022-08-26T07:32:07.614Z,94.48
2022-08-26T07:34:35.046Z,94.39
2022-08-26T07:37:02.502Z,93.70
2022-08-26T07:39:32.777Z,93.66
2022-08-26T07:42:01.311Z,93.44
2022-08-26T07:44:29.495Z,93.46
2022-08-26T07:46:57.133Z,93.47
2022-08-26T07:49:26.791Z,93.61
2022-08-26T07:51:55.608Z,93.13
2022-08-26T07:54:27.121Z,92.31
2022-08-26T07:56:56.309Z,92.92
2022-08-26T07:59:24.267Z,92.88
2022-08-26T08:01:51.945Z,92.71
2022-08-26T08:04:26.229Z,92.66
2022-08-26T08:06:54.852Z,92.55
2022-08-26T08:09:22.785Z,92.76
2022-08-26T08:11:51.277Z,92.51
2022-08-26T08:14:22.149Z,92.05
2022-08-26T08:16:51.110Z,92.16
2022-08-26T08:19:22.029Z,92.28
2022-08-26T08:21:49.653Z,92.69
2022-08-26T08:24:18.716Z,92.01
2022-08-26T08:26:46.487Z,91.84
2022-08-26T08:29:14.558Z,91.68
2022-08-26T08:31:59.906Z,91.39
2022-08-26T08:34:28.534Z,90.73
2022-08-26T08:36:57.074Z,90.07
2022-08-26T08:39:25.060Z,90.78
2022-08-26T08:42:04.781Z,90.13
2022-08-26T08:44:32.482Z,89.28
2022-08-26T08:47:04.730Z,89.33
2022-08-26T08:49:33.810Z,89.10
2022-08-26T08:52:03.223Z,88.38
2022-08-26T08:54:32.460Z,88.46
2022-08-26T08:57:04.668Z,88.21
2022-08-26T08:59:34.174Z,87.86
2022-08-26T09:02:11.124Z,87.83
2022-08-26T09:04:51.266Z,87.92
2022-08-26T09:07:21.358Z,88.25
2022-08-26T09:09:52.015Z,87.74
2022-08-26T09:12:29.305Z,86.79
2022-08-26T09:15:01.517Z,86.30
2022-08-26T09:17:36.281Z,85.46
2022-08-26T09:20:09.534Z,85.02
2022-08-26T09:22:37.997Z,85.02
2022-08-26T09:25:06.785Z,84.30
2022-08-26T09:27:43.343Z,84.18
2022-08-26T09:30:11.983Z,83.86
2022-08-26T09:32:41.693Z,82.92
2022-08-26T09:35:11.038Z,82.55
2022-08-26T09:37:42.547Z,83.42
2022-08-26T09:40:22.608Z,83.61
2022-08-26T09:43:06.100Z,82.82
2022-08-26T09:45:34.404Z,82.96
2022-08-26T09:48:04.211Z,83.70
2022-08-26T09:50:33.340Z,83.68
2022-08-26T09:53:12.777Z,84.18
2022-08-26T09:55:42.854Z,84.68
2022-08-26T09:58:13.342Z,84.86
2022-08-26T10:00:42.238Z,84.98
2022-08-26T10:03:17.327Z,85.45
2022-08-26T10:05:46.295Z,85.52
2022-08-26T10:08:24.558Z,86.68
2022-08-26T10:10:53.120Z,87.41
2022-08-26T10:13:24.464Z,87.77
2022-08-26T10:15:56.583Z,88.54
2022-08-26T10:18:34.090Z,89.15
2022-08-26T10:21:04.226Z,88.81
2022-08-26T10:26:13.679Z,90.25
2022-08-26T10:28:44.695Z,88.66
2022-08-26T10:31:27.900Z,89.25
2022-08-26T10:34:00.432Z,87.04
2022-08-26T10:37:10.836Z,86.72
2022-08-26T10:39:40.597Z,86.68
2022-08-26T10:42:10.965Z,86.04
2022-08-26T10:44:39.690Z,86.41
2022-08-26T10:47:15.827Z,85.06
2022-08-26T10:49:45.202Z,84.80
2022-08-26T10:52:16.447Z,84.90
2022-08-26T10:54:46.474Z,84.32
2022-08-26T10:57:18.000Z,84.39
2022-08-26T10:59:51.012Z,83.28
2022-08-26T11:02:24.903Z,83.79
2022-08-26T11:04:56.514Z,83.44
2022-08-26T11:07:34.039Z,82.92
2022-08-26T11:10:02.409Z,83.23
2022-08-26T11:12:49.593Z,82.47
2022-08-26T11:15:31.979Z,82.33
2022-08-26T11:18:02.026Z,82.83
2022-08-26T11:20:35.158Z,83.44
2022-08-26T11:23:22.211Z,83.63
2022-08-26T11:26:05.199Z,84.25
2022-08-26T11:28:34.078Z,84.45
2022-08-26T11:31:01.673Z,83.89
2022-08-26T11:33:59.437Z,83.16
2022-08-26T11:36:37.326Z,83.75
2022-08-26T11:39:13.987Z,83.81
2022-08-26T11:41:43.793Z,83.72
2022-08-26T11:44:12.322Z,83.79
2022-08-26T11:46:39.757Z,83.72
2022-08-26T11:49:21.937Z,83.33
2022-08-26T11:51:50.707Z,82.28
2022-08-26T11:54:29.266Z,83.04
2022-08-26T11:57:08.006Z,83.04
2022-08-26T11:59:40.196Z,82.33
2022-08-26T12:02:13.721Z,82.44
2022-08-26T12:04:43.215Z,82.91
2022-08-26T12:07:12.808Z,82.85
2022-08-26T12:09:51.908Z,81.93
2022-08-26T12:12:23.793Z,81.31
2022-08-26T12:15:06.149Z,81.13
2022-08-26T12:17:33.635Z,80.58
2022-08-26T12:20:01.071Z,79.94
2022-08-26T12:22:34.417Z,81.02
2022-08-26T12:25:04.809Z,79.03
2022-08-26T12:27:33.236Z,79.61
2022-08-26T12:30:03.520Z,80.01
2022-08-26T12:32:34.994Z,81.27
2022-08-26T12:37:40.398Z,82.74
2022-08-26T12:40:28.876Z,82.89
2022-08-26T12:42:57.210Z,83.09
2022-08-26T12:45:28.328Z,82.85
2022-08-26T12:47:59.588Z,83.02
2022-08-26T12:50:28.682Z,81.70
2022-08-26T12:52:59.838Z,81.02
2022-08-26T12:55:35.303Z,80.58
2022-08-26T12:58:12.565Z,80.21
2022-08-26T13:00:41.361Z,79.03
2022-08-26T13:03:23.871Z,79.00
2022-08-26T13:05:52.605Z,78.86
2022-08-26T13:08:27.619Z,79.84
2022-08-26T13:11:03.277Z,78.94
2022-08-26T13:13:30.675Z,78.80
2022-08-26T13:15:58.817Z,78.40
2022-08-26T13:18:26.328Z,79.99
2022-08-26T13:20:53.819Z,80.64
2022-08-26T13:23:23.212Z,78.20
2022-08-26T13:25:52.104Z,78.79
2022-08-26T13:28:19.521Z,78.96
2022-08-26T13:30:49.611Z,78.46
2022-08-26T13:33:18.503Z,78.86
2022-08-26T13:35:45.978Z,79.69
2022-08-26T13:38:22.375Z,80.31
2022-08-26T13:41:03.734Z,80.19
2022-08-26T13:43:31.358Z,80.82
2022-08-26T13:45:58.859Z,80.68
2022-08-26T13:48:26.347Z,79.91
2022-08-26T13:50:54.096Z,79.74
2022-08-26T13:53:21.660Z,79.45
2022-08-26T13:55:49.153Z,80.42
2022-08-26T13:58:18.138Z,81.23
2022-08-26T14:00:45.604Z,80.98
2022-08-26T14:03:14.447Z,81.09
2022-08-26T14:05:41.962Z,80.30
2022-08-26T14:08:09.619Z,80.73
2022-08-26T14:10:37.181Z,81.07
2022-08-26T14:13:04.825Z,81.04
2022-08-26T14:15:37.885Z,81.70
2022-08-26T14:18:06.749Z,81.65
2022-08-26T14:20:36.547Z,81.81
2022-08-26T14:23:20.725Z,82.10
2022-08-26T14:25:48.246Z,82.37
2022-08-26T14:28:15.710Z,82.37
2022-08-26T14:30:45.471Z,82.41
2022-08-26T14:33:14.130Z,82.06
2022-08-26T14:35:48.014Z,80.96
2022-08-26T14:38:17.535Z,80.53
2022-08-26T14:40:45.495Z,80.75
2022-08-26T14:43:13.734Z,81.39
2022-08-26T14:48:16.119Z,81.32
2022-08-26T14:50:43.634Z,81.43
2022-08-26T14:53:28.448Z,81.54
2022-08-26T14:55:55.885Z,80.59
2022-08-26T14:58:23.275Z,80.07
2022-08-26T15:00:50.643Z,80.36
2022-08-26T15:05:51.685Z,80.85
2022-08-26T15:08:20.668Z,80.44
2022-08-26T15:10:48.103Z,79.92
2022-08-26T15:13:15.497Z,79.71
2022-08-26T15:15:43.024Z,79.26
2022-08-26T15:18:10.666Z,79.62
2022-08-26T15:20:39.630Z,79.48
2022-08-26T15:23:07.377Z,79.84
2022-08-26T15:25:35.143Z,77.56
2022-08-26T15:28:02.704Z,78.33
2022-08-26T15:30:30.213Z,77.98
2022-08-26T15:32:57.614Z,77.52
2022-08-26T15:35:25.079Z,76.64
2022-08-26T15:40:26.552Z,77.77
2022-08-26T15:43:01.204Z,77.40
2022-08-26T15:45:38.991Z,77.97
2022-08-26T15:48:06.801Z,77.83
2022-08-26T15:50:34.686Z,77.37
2022-08-26T15:53:05.463Z,76.87
2022-08-26T15:55:32.846Z,77.22
2022-08-26T15:58:01.071Z,78.34
2022-08-26T16:00:29.238Z,76.63
2022-08-26T16:02:56.657Z,76.53
2022-08-26T16:05:24.130Z,75.51
2022-08-26T16:07:51.562Z,74.15
2022-08-26T16:10:20.490Z,73.14
2022-08-26T16:12:47.971Z,70.86
2022-08-26T16:15:15.455Z,72.59
2022-08-26T16:17:42.882Z,73.50
2022-08-26T16:20:10.497Z,73.19
2022-08-26T16:22:37.882Z,72.86
2022-08-26T16:25:07.253Z,72.40
2022-08-26T16:27:36.019Z,73.34
2022-08-26T16:30:05.494Z,72.84
2022-08-26T16:32:32.914Z,73.15
2022-08-26T16:35:00.349Z,74.59
2022-08-26T16:37:27.928Z,73.57
2022-08-26T16:39:55.393Z,72.88
2022-08-26T16:42:22.950Z,72.76
2022-08-26T16:44:52.988Z,73.20
2022-08-26T16:47:21.189Z,72.47
2022-08-26T16:49:48.655Z,72.28
2022-08-26T16:52:16.092Z,72.05
2022-08-26T16:54:43.572Z,71.63
2022-08-26T16:57:12.243Z,71.14
2022-08-26T16:59:40.461Z,71.98
2022-08-26T17:02:11.755Z,72.17
2022-08-26T17:04:39.450Z,71.82
2022-08-26T17:07:06.946Z,71.11
2022-08-26T17:09:35.007Z,71.56
2022-08-26T17:12:02.560Z,71.04
2022-08-26T17:14:30.315Z,71.75
2022-08-26T17:16:57.728Z,73.28
2022-08-26T17:19:27.190Z,73.33
2022-08-26T17:21:54.590Z,73.43
2022-08-26T17:24:22.071Z,72.26
2022-08-26T17:26:50.717Z,72.92
2022-08-26T17:29:22.914Z,73.57
2022-08-26T17:31:50.307Z,72.90
2022-08-26T17:34:17.753Z,73.20
2022-08-26T17:36:46.724Z,73.86
2022-08-26T17:39:14.150Z,72.36
2022-08-26T17:41:41.875Z,73.67
2022-08-26T17:44:09.328Z,73.73
2022-08-26T17:46:38.507Z,71.87
2022-08-26T17:49:06.369Z,72.67
2022-08-26T17:51:33.831Z,73.02
2022-08-26T17:54:03.746Z,73.98
2022-08-26T17:56:31.669Z,74.51
2022-08-26T17:59:02.368Z,74.09
2022-08-26T18:01:31.641Z,74.58
2022-08-26T18:04:00.631Z,74.82
2022-08-26T18:06:28.859Z,73.73
2022-08-26T18:08:56.578Z,74.15
2022-08-26T18:11:25.376Z,73.51
2022-08-26T18:13:53.367Z,74.57
2022-08-26T18:16:21.030Z,73.97
2022-08-26T18:18:49.593Z,73.10
2022-08-26T18:21:19.212Z,76.25
2022-08-26T18:23:47.679Z,75.93
2022-08-26T18:26:19.244Z,74.80
2022-08-26T18:28:48.347Z,74.39
2022-08-26T18:31:16.150Z,73.10
2022-08-26T18:33:43.994Z,73.63
2022-08-26T18:36:15.895Z,74.01
2022-08-26T18:38:43.343Z,74.30
2022-08-26T18:41:10.763Z,74.55
2022-08-26T18:43:38.176Z,74.93
2022-08-26T18:46:08.152Z,74.88
2022-08-26T18:48:36.671Z,75.03
2022-08-26T18:51:04.728Z,75.33
2022-08-26T18:53:32.678Z,75.66
2022-08-26T18:56:01.825Z,75.99
2022-08-26T18:58:29.237Z,76.75
2022-08-26T19:00:56.690Z,76.46
2022-08-26T19:03:25.418Z,76.86
2022-08-26T19:05:52.966Z,76.68
2022-08-26T19:08:20.687Z,76.75
2022-08-26T19:10:48.317Z,75.69
2022-08-26T19:13:16.229Z,75.49
2022-08-26T19:15:46.251Z,75.08
2022-08-26T19:18:14.843Z,74.56
2022-08-26T19:20:46.772Z,74.60
2022-08-26T19:23:30.470Z,74.64
2022-08-26T19:25:59.064Z,75.02
2022-08-26T19:28:26.521Z,75.35
2022-08-26T19:30:54.134Z,76.11
2022-08-26T19:33:21.566Z,75.86
2022-08-26T19:35:50.745Z,76.56
2022-08-26T19:38:18.366Z,76.97
2022-08-26T19:40:45.761Z,76.98
2022-08-26T19:43:13.262Z,77.58
2022-08-26T19:45:42.216Z,78.20
2022-08-26T19:48:11.456Z,78.13
2022-08-26T19:50:39.313Z,78.09
2022-08-26T19:53:09.144Z,78.37
2022-08-26T19:55:37.060Z,78.94
2022-08-26T19:58:04.580Z,78.71
2022-08-26T20:00:33.702Z,78.79
2022-08-26T20:03:01.677Z,78.53
2022-08-26T20:05:29.247Z,78.74
2022-08-26T20:07:58.213Z,79.04
2022-08-26T20:10:27.113Z,79.47
2022-08-26T20:12:54.574Z,79.73
2022-08-26T20:15:23.017Z,79.76
2022-08-26T20:17:51.296Z,80.34
2022-08-26T20:20:36.894Z,80.47
2022-08-26T20:23:05.208Z,80.49
2022-08-26T20:25:34.673Z,80.64
2022-08-26T20:28:02.325Z,80.97
2022-08-26T20:30:29.859Z,81.16
2022-08-26T20:32:57.463Z,81.77
2022-08-26T20:35:25.190Z,81.65
2022-08-26T20:37:52.841Z,81.76
2022-08-26T20:40:21.370Z,81.83
2022-08-26T20:42:50.470Z,82.44
2022-08-26T20:45:17.910Z,82.81
2022-08-26T20:47:45.522Z,83.29
2022-08-26T20:50:13.192Z,83.64
2022-08-26T20:52:41.003Z,84.07
2022-08-26T20:55:09.153Z,84.84
2022-08-26T20:57:37.300Z,84.99
2022-08-26T21:00:07.401Z,85.37
2022-08-26T21:02:34.947Z,85.55
2022-08-26T21:05:02.731Z,86.00
2022-08-26T21:07:30.261Z,86.38
2022-08-26T21:09:58.023Z,86.55
2022-08-26T21:12:26.868Z,86.99
2022-08-26T21:14:54.870Z,86.98
2022-08-26T21:17:23.818Z,87.37
2022-08-26T21:19:51.266Z,87.26
2022-08-26T21:22:18.728Z,87.54
2022-08-26T21:24:46.198Z,87.21
2022-08-26T21:27:13.620Z,87.60
2022-08-26T21:29:45.079Z,87.92
2022-08-26T21:32:16.607Z,87.77
2022-08-26T21:34:45.492Z,87.93
2022-08-26T21:37:16.884Z,88.24
2022-08-26T21:39:44.867Z,88.11
2022-08-26T21:42:12.274Z,88.53
2022-08-26T21:44:39.747Z,88.73
2022-08-26T21:47:07.427Z,89.07
2022-08-26T21:49:34.872Z,89.10
2022-08-26T21:52:04.549Z,89.58
2022-08-26T21:54:32.271Z,89.46
2022-08-26T21:56:59.664Z,89.37
2022-08-26T21:59:27.042Z,89.57
2022-08-26T22:01:54.620Z,89.71
2022-08-26T22:04:22.237Z,89.80
2022-08-26T22:06:50.680Z,89.74
2022-08-26T22:09:20.012Z,89.80
2022-08-26T22:11:47.625Z,90.15
2022-08-26T22:14:15.696Z,89.84
2022-08-26T22:16:43.175Z,89.29
2022-08-26T22:19:18.199Z,89.41
2022-08-26T22:21:46.194Z,89.11
2022-08-26T22:24:13.603Z,88.67
2022-08-26T22:26:43.071Z,88.92
2022-08-26T22:29:10.533Z,88.71
2022-08-26T22:31:38.908Z,89.09
2022-08-26T22:34:07.541Z,88.70
2022-08-26T22:36:35.476Z,88.73
2022-08-26T22:39:10.870Z,89.05
2022-08-26T22:41:38.304Z,89.03
2022-08-26T22:44:07.508Z,89.15
2022-08-26T22:46:36.665Z,89.00
2022-08-26T22:49:04.967Z,89.68
2022-08-26T22:51:33.295Z,89.14
2022-08-26T22:54:00.715Z,89.34
2022-08-26T22:56:28.389Z,88.93
2022-08-26T22:58:55.779Z,89.18
2022-08-26T23:01:24.717Z,89.17
2022-08-26T23:03:52.194Z,89.28
2022-08-26T23:06:19.662Z,88.72
2022-08-26T23:08:47.381Z,88.95
2022-08-26T23:11:15.785Z,89.02
2022-08-26T23:13:43.293Z,88.78
2022-08-26T23:16:12.324Z,88.58
2022-08-26T23:18:41.716Z,88.71
2022-08-26T23:21:09.400Z,88.26
2022-08-26T23:23:38.274Z,88.28
2022-08-26T23:26:06.879Z,88.21
2022-08-26T23:28:34.637Z,87.93
2022-08-26T23:31:02.083Z,87.80
2022-08-26T23:33:49.571Z,88.00
2022-08-26T23:36:18.407Z,87.96
2022-08-26T23:38:53.054Z,87.88
2022-08-26T23:41:20.812Z,88.11
2022-08-26T23:43:48.173Z,87.73
2022-08-26T23:46:15.873Z,88.03
2022-08-26T23:48:43.291Z,87.71
2022-08-26T23:51:28.034Z,87.33
2022-08-26T23:53:57.787Z,87.55
2022-08-26T23:56:26.751Z,87.34
2022-08-26T23:58:54.758Z,86.61
